createdAt,value
2022-10-28T00:03:17.505Z,40.60
2022-10-28T00:08:18.509Z,43.40
2022-10-28T00:18:20.785Z,39.50
2022-10-28T00:33:23.820Z,40.50
2022-10-28T00:38:24.911Z,36.60
2022-10-28T00:43:44.813Z,33.10
2022-10-28T00:48:51.394Z,32.90
2022-10-28T00:53:55.275Z,29.00
2022-10-28T00:59:00.372Z,32.40
2022-10-28T01:04:02.159Z,30.70
2022-10-28T01:09:03.406Z,30.50
2022-10-28T01:14:33.669Z,31.90
2022-10-28T01:20:13.654Z,31.40
2022-10-28T01:25:23.630Z,34.30
2022-10-28T01:30:28.101Z,33.90
2022-10-28T01:36:03.310Z,33.50
2022-10-28T01:41:22.145Z,32.00
2022-10-28T01:46:34.636Z,38.40
2022-10-28T01:51:41.340Z,34.20
2022-10-28T01:56:45.231Z,37.70
2022-10-28T02:01:46.434Z,36.30
2022-10-28T02:06:52.640Z,35.30
2022-10-28T02:12:10.113Z,34.00
2022-10-28T02:17:48.727Z,30.40
2022-10-28T02:23:10.732Z,28.20
2022-10-28T02:28:18.524Z,25.50
2022-10-28T02:33:24.760Z,25.80
2022-10-28T02:38:32.651Z,22.60
2022-10-28T02:43:37.263Z,22.60
2022-10-28T02:48:48.237Z,22.70
2022-10-28T02:54:11.048Z,22.40
2022-10-28T02:59:12.831Z,23.20
2022-10-28T03:04:13.912Z,22.40
2022-10-28T03:09:15.162Z,21.60
2022-10-28T03:14:16.205Z,19.80
2022-10-28T03:19:17.488Z,20.10
2022-10-28T03:24:18.537Z,21.30
2022-10-28T03:29:20.292Z,21.30
2022-10-28T03:34:21.498Z,20.80
2022-10-28T03:39:23.114Z,26.90
2022-10-28T03:44:24.213Z,23.50
2022-10-28T03:49:25.387Z,22.80
2022-10-28T03:54:26.424Z,23.40
2022-10-28T04:04:30.777Z,29.00
2022-10-28T04:09:32.115Z,30.30
2022-10-28T04:14:33.208Z,26.10
2022-10-28T04:29:37.023Z,20.70
2022-10-28T04:34:38.338Z,20.80
2022-10-28T04:39:39.501Z,20.90
2022-10-28T04:49:41.447Z,19.10
2022-10-28T04:54:43.611Z,19.30
2022-10-28T04:59:46.000Z,23.40
2022-10-28T05:04:47.395Z,24.10
2022-10-28T05:14:51.241Z,21.50
2022-10-28T05:19:54.274Z,18.60
2022-10-28T05:24:55.350Z,21.90
2022-10-28T05:29:56.570Z,21.90
2022-10-28T05:39:58.569Z,17.40
2022-10-28T05:44:59.946Z,22.40
2022-10-28T05:50:01.423Z,22.50
2022-10-28T05:55:02.541Z,23.40
2022-10-28T06:00:05.322Z,21.80
2022-10-28T06:05:07.851Z,23.00
2022-10-28T06:10:10.280Z,22.60
2022-10-28T06:15:10.019Z,21.60
2022-10-28T06:20:11.098Z,24.50
2022-10-28T06:25:12.609Z,22.80
2022-10-28T06:30:13.926Z,20.10
2022-10-28T06:35:15.432Z,20.00
2022-10-28T06:40:16.431Z,20.80
2022-10-28T06:45:17.641Z,19.30
2022-10-28T06:50:20.476Z,20.30
2022-10-28T06:55:23.843Z,21.80
2022-10-28T07:00:26.970Z,22.70
2022-10-28T07:05:31.136Z,21.20
2022-10-28T07:10:32.473Z,20.70
2022-10-28T07:15:33.632Z,19.50
2022-10-28T07:20:34.635Z,21.60
2022-10-28T07:25:35.705Z,20.50
2022-10-28T07:30:36.743Z,18.10
2022-10-28T07:35:37.929Z,19.50
2022-10-28T07:40:39.246Z,18.90
2022-10-28T07:45:40.366Z,18.90
2022-10-28T07:50:41.582Z,18.70
2022-10-28T07:55:42.741Z,21.40
2022-10-28T08:00:43.767Z,20.90
2022-10-28T08:05:45.386Z,20.10
2022-10-28T08:10:46.488Z,20.60
2022-10-28T08:15:54.289Z,20.40
2022-10-28T08:26:00.263Z,16.70
2022-10-28T08:31:10.132Z,19.20
2022-10-28T08:36:14.155Z,20.60
2022-10-28T08:41:30.635Z,16.20
2022-10-28T08:46:50.594Z,13.40
2022-10-28T08:52:02.977Z,14.80
2022-10-28T08:57:09.246Z,16.30
2022-10-28T09:02:10.247Z,16.00
2022-10-28T09:07:33.230Z,17.90
2022-10-28T09:12:58.814Z,17.40
2022-10-28T09:18:19.755Z,18.00
2022-10-28T09:23:30.321Z,16.30
2022-10-28T09:33:58.777Z,16.50
2022-10-28T09:39:02.634Z,16.50
2022-10-28T09:44:14.970Z,16.50
2022-10-28T09:49:21.605Z,18.20
2022-10-28T09:54:32.963Z,18.40
2022-10-28T09:59:34.353Z,16.30
2022-10-28T10:04:35.659Z,17.10
2022-10-28T10:09:38.212Z,19.10
2022-10-28T10:14:47.697Z,16.30
2022-10-28T10:20:10.042Z,19.00
2022-10-28T10:25:17.101Z,19.80
2022-10-28T10:30:22.673Z,14.10
2022-10-28T10:35:27.705Z,14.90
2022-10-28T10:40:39.356Z,15.00
2022-10-28T10:45:48.015Z,21.70
2022-10-28T10:50:49.953Z,15.90
2022-10-28T10:55:55.054Z,17.00
2022-10-28T11:00:58.882Z,15.60
2022-10-28T11:06:22.015Z,16.50
2022-10-28T11:11:30.658Z,17.90
2022-10-28T11:16:31.960Z,19.30
2022-10-28T11:21:56.467Z,11.60
2022-10-28T11:27:22.132Z,17.40
2022-10-28T11:32:26.253Z,13.10
2022-10-28T11:38:05.275Z,12.00
2022-10-28T11:43:31.432Z,13.70
2022-10-28T11:48:44.256Z,13.40
2022-10-28T11:54:23.027Z,13.20
2022-10-28T12:00:02.567Z,17.80
2022-10-28T12:05:31.268Z,13.10
2022-10-28T12:11:10.367Z,15.40
2022-10-28T12:16:39.242Z,18.50
2022-10-28T12:21:45.534Z,19.30
2022-10-28T12:27:15.290Z,18.80
2022-10-28T12:32:25.596Z,19.00
2022-10-28T12:37:49.939Z,22.40
2022-10-28T12:43:03.464Z,17.70
2022-10-28T12:48:31.047Z,17.70
2022-10-28T12:53:50.754Z,20.30
2022-10-28T12:59:12.398Z,17.90
2022-10-28T13:04:14.052Z,15.00
2022-10-28T13:09:39.032Z,21.10
2022-10-28T13:15:02.975Z,19.30
2022-10-28T13:20:42.088Z,19.50
2022-10-28T13:26:15.407Z,19.50
2022-10-28T13:31:17.757Z,17.90
2022-10-28T13:36:20.742Z,22.20
2022-10-28T13:41:48.778Z,17.50
2022-10-28T13:47:27.660Z,22.50
2022-10-28T13:52:29.070Z,15.40
2022-10-28T13:57:39.810Z,14.50
2022-10-28T14:03:02.903Z,19.10
2022-10-28T14:08:07.131Z,15.40
2022-10-28T14:13:18.614Z,17.10
2022-10-28T14:18:42.228Z,16.40
2022-10-28T14:23:43.970Z,16.70
2022-10-28T14:28:44.993Z,16.90
2022-10-28T14:33:55.233Z,16.40
2022-10-28T14:39:34.325Z,18.70
2022-10-28T14:44:54.548Z,18.60
2022-10-28T14:50:02.649Z,16.30
2022-10-28T14:55:18.482Z,17.00
2022-10-28T15:00:22.747Z,18.30
2022-10-28T15:05:29.614Z,19.20
2022-10-28T15:10:35.760Z,23.20
2022-10-28T15:15:38.705Z,20.90
2022-10-28T15:20:39.809Z,20.90
2022-10-28T15:25:41.303Z,22.50
2022-10-28T15:30:46.426Z,22.30
2022-10-28T15:35:48.109Z,15.50
2022-10-28T15:40:49.393Z,21.60
2022-10-28T15:45:50.465Z,22.60
2022-10-28T15:51:11.755Z,26.00
2022-10-28T15:56:12.728Z,21.10
2022-10-28T16:01:37.489Z,21.70
2022-10-28T16:06:39.166Z,20.70
2022-10-28T16:11:44.268Z,16.10
2022-10-28T16:16:45.617Z,19.70
2022-10-28T16:21:48.145Z,24.30
2022-10-28T16:26:49.258Z,20.70
2022-10-28T16:31:51.823Z,19.30
2022-10-28T16:36:53.041Z,19.10
2022-10-28T16:41:57.673Z,17.70
2022-10-28T16:46:58.708Z,17.70
2022-10-28T16:52:02.233Z,21.30
2022-10-28T16:57:03.260Z,17.10
2022-10-28T17:02:14.727Z,19.80
2022-10-28T17:07:17.823Z,19.20
2022-10-28T17:12:24.616Z,23.00
2022-10-28T17:17:25.775Z,23.60
2022-10-28T17:22:27.108Z,25.30
2022-10-28T17:27:28.147Z,23.40
2022-10-28T17:32:29.136Z,28.10
2022-10-28T17:37:30.296Z,47.10
2022-10-28T17:42:31.539Z,66.20
2022-10-28T17:47:33.982Z,44.80
2022-10-28T17:52:38.370Z,26.10
2022-10-28T17:57:39.715Z,24.80
2022-10-28T18:02:40.829Z,27.30
2022-10-28T18:07:42.419Z,22.80
2022-10-28T18:12:43.551Z,21.00
2022-10-28T18:17:48.875Z,17.50
2022-10-28T18:22:49.945Z,21.60
2022-10-28T18:27:51.149Z,21.80
2022-10-28T18:32:53.044Z,19.60
2022-10-28T18:37:55.016Z,22.40
2022-10-28T18:42:56.558Z,24.70
2022-10-28T18:47:58.043Z,18.10
2022-10-28T18:52:59.251Z,18.80
2022-10-28T18:58:00.431Z,19.70
2022-10-28T19:03:01.771Z,20.60
2022-10-28T19:08:03.013Z,20.80
2022-10-28T19:13:04.151Z,19.70
2022-10-28T19:18:05.210Z,21.80
2022-10-28T19:23:06.354Z,17.10
2022-10-28T19:28:07.494Z,23.80
2022-10-28T19:33:08.705Z,19.80
2022-10-28T19:38:09.751Z,17.90
2022-10-28T19:43:10.770Z,20.00
2022-10-28T19:48:11.800Z,18.90
2022-10-28T19:53:13.063Z,16.30
2022-10-28T19:58:14.087Z,12.70
2022-10-28T20:03:15.181Z,18.30
2022-10-28T20:08:16.499Z,24.20
2022-10-28T20:13:17.549Z,20.70
2022-10-28T20:18:18.610Z,21.60
2022-10-28T20:23:19.767Z,26.10
2022-10-28T20:28:21.430Z,20.00
2022-10-28T20:33:23.330Z,23.40
2022-10-28T20:38:26.040Z,23.80
2022-10-28T20:43:28.885Z,21.30
2022-10-28T20:48:30.512Z,20.60
2022-10-28T20:53:35.499Z,19.60
2022-10-28T20:58:36.515Z,18.20
2022-10-28T21:03:40.199Z,24.50
2022-10-28T21:08:42.502Z,14.60
2022-10-28T21:13:48.110Z,22.80
2022-10-28T21:18:49.850Z,25.80
2022-10-28T21:23:51.183Z,21.40
2022-10-28T21:28:52.819Z,19.10
2022-10-28T21:33:54.584Z,23.20
2022-10-28T21:38:55.956Z,21.70
2022-10-28T21:43:57.349Z,17.30
2022-10-28T21:49:00.226Z,19.40
2022-10-28T21:54:01.477Z,20.90
2022-10-28T21:59:02.787Z,22.20
2022-10-28T22:04:04.417Z,22.60
2022-10-28T22:09:05.460Z,13.80
2022-10-28T22:14:06.764Z,20.10
2022-10-28T22:19:13.760Z,20.50
2022-10-28T22:24:14.928Z,17.60
2022-10-28T22:29:15.948Z,17.70
2022-10-28T22:34:17.006Z,17.30
2022-10-28T22:39:18.210Z,15.90
2022-10-28T22:44:19.302Z,21.70
2022-10-28T22:49:23.410Z,17.50
2022-10-28T22:54:24.540Z,12.10
2022-10-28T22:59:25.859Z,18.60
2022-10-28T23:04:27.694Z,19.30
2022-10-28T23:09:29.082Z,17.40
2022-10-28T23:14:30.196Z,13.60
2022-10-28T23:19:31.248Z,14.80
2022-10-28T23:24:32.351Z,16.60
2022-10-28T23:29:33.388Z,16.30
2022-10-28T23:34:34.434Z,17.90
2022-10-28T23:39:35.742Z,17.40
2022-10-28T23:44:36.819Z,20.90
2022-10-28T23:49:37.883Z,20.80
2022-10-28T23:54:39.417Z,15.80
2022-10-28T23:59:40.520Z,20.10
